sensor_id;sensor_type;location;lat;lon;timestamp;P1;durP1;ratioP1;P2;durP2;ratioP2
7150;SDS011;3617;48.836;9.172;2023-05-07T00:01:41;6.40;;;4.13;;
7150;SDS011;3617;48.836;9.172;2023-05-07T00:04:07;6.93;;;3.87;;
7150;SDS011;3617;48.836;9.172;2023-05-07T00:06:33;5.77;;;4.10;;
7150;SDS011;3617;48.836;9.172;2023-05-07T00:09:00;5.53;;;3.97;;
7150;SDS011;3617;48.836;9.172;2023-05-07T00:11:27;8.87;;;4.43;;
7150;SDS011;3617;48.836;9.172;2023-05-07T00:13:53;5.97;;;4.33;;
7150;SDS011;3617;48.836;9.172;2023-05-07T00:16:19;5.90;;;4.20;;
7150;SDS011;3617;48.836;9.172;2023-05-07T00:18:45;8.20;;;3.93;;
7150;SDS011;3617;48.836;9.172;2023-05-07T00:21:11;7.00;;;4.07;;
7150;SDS011;3617;48.836;9.172;2023-05-07T00:23:37;5.67;;;4.00;;
7150;SDS011;3617;48.836;9.172;2023-05-07T00:26:03;7.63;;;3.93;;
7150;SDS011;3617;48.836;9.172;2023-05-07T00:28:29;4.23;;;3.50;;
7150;SDS011;3617;48.836;9.172;2023-05-07T00:30:55;9.07;;;4.60;;
7150;SDS011;3617;48.836;9.172;2023-05-07T00:33:22;6.03;;;4.10;;
7150;SDS011;3617;48.836;9.172;2023-05-07T00:35:48;8.40;;;4.23;;
7150;SDS011;3617;48.836;9.172;2023-05-07T00:38:14;5.63;;;4.50;;
7150;SDS011;3617;48.836;9.172;2023-05-07T00:40:40;6.43;;;4.17;;
7150;SDS011;3617;48.836;9.172;2023-05-07T00:43:06;5.27;;;3.63;;
7150;SDS011;3617;48.836;9.172;2023-05-07T00:45:32;6.70;;;4.60;;
7150;SDS011;3617;48.836;9.172;2023-05-07T00:47:59;6.47;;;4.10;;
7150;SDS011;3617;48.836;9.172;2023-05-07T00:50:26;6.73;;;4.30;;
7150;SDS011;3617;48.836;9.172;2023-05-07T00:52:52;5.20;;;3.63;;
7150;SDS011;3617;48.836;9.172;2023-05-07T00:55:18;7.87;;;4.07;;
7150;SDS011;3617;48.836;9.172;2023-05-07T00:57:44;5.80;;;3.87;;
7150;SDS011;3617;48.836;9.172;2023-05-07T01:00:11;4.90;;;3.87;;
7150;SDS011;3617;48.836;9.172;2023-05-07T01:02:40;8.20;;;4.13;;
7150;SDS011;3617;48.836;9.172;2023-05-07T01:05:07;5.73;;;3.93;;
7150;SDS011;3617;48.836;9.172;2023-05-07T01:07:34;5.70;;;3.80;;
7150;SDS011;3617;48.836;9.172;2023-05-07T01:10:01;5.23;;;3.93;;
7150;SDS011;3617;48.836;9.172;2023-05-07T01:12:28;5.63;;;3.97;;
7150;SDS011;3617;48.836;9.172;2023-05-07T01:14:54;7.70;;;4.47;;
7150;SDS011;3617;48.836;9.172;2023-05-07T01:17:20;6.33;;;3.97;;
7150;SDS011;3617;48.836;9.172;2023-05-07T01:19:46;5.30;;;3.90;;
7150;SDS011;3617;48.836;9.172;2023-05-07T01:22:13;6.93;;;4.03;;
7150;SDS011;3617;48.836;9.172;2023-05-07T01:24:41;6.13;;;4.27;;
7150;SDS011;3617;48.836;9.172;2023-05-07T01:27:07;9.00;;;4.40;;
7150;SDS011;3617;48.836;9.172;2023-05-07T01:29:33;7.80;;;4.30;;
7150;SDS011;3617;48.836;9.172;2023-05-07T01:32:00;5.10;;;4.13;;
7150;SDS011;3617;48.836;9.172;2023-05-07T01:34:30;6.53;;;3.67;;
7150;SDS011;3617;48.836;9.172;2023-05-07T01:36:57;7.63;;;4.50;;
7150;SDS011;3617;48.836;9.172;2023-05-07T01:39:24;5.77;;;4.17;;
7150;SDS011;3617;48.836;9.172;2023-05-07T01:41:51;6.10;;;3.83;;
7150;SDS011;3617;48.836;9.172;2023-05-07T01:44:18;4.50;;;3.83;;
7150;SDS011;3617;48.836;9.172;2023-05-07T01:46:44;6.80;;;4.30;;
7150;SDS011;3617;48.836;9.172;2023-05-07T01:49:10;5.73;;;4.00;;
7150;SDS011;3617;48.836;9.172;2023-05-07T01:51:36;7.07;;;4.07;;
7150;SDS011;3617;48.836;9.172;2023-05-07T01:54:02;7.93;;;4.67;;
7150;SDS011;3617;48.836;9.172;2023-05-07T01:56:28;6.27;;;4.10;;
7150;SDS011;3617;48.836;9.172;2023-05-07T01:58:55;5.43;;;4.00;;
7150;SDS011;3617;48.836;9.172;2023-05-07T02:01:21;6.50;;;3.97;;
7150;SDS011;3617;48.836;9.172;2023-05-07T02:03:47;5.73;;;4.00;;
7150;SDS011;3617;48.836;9.172;2023-05-07T02:06:13;5.53;;;4.07;;
7150;SDS011;3617;48.836;9.172;2023-05-07T02:08:39;6.67;;;4.03;;
7150;SDS011;3617;48.836;9.172;2023-05-07T02:11:05;5.80;;;3.97;;
7150;SDS011;3617;48.836;9.172;2023-05-07T02:13:31;5.57;;;4.20;;
7150;SDS011;3617;48.836;9.172;2023-05-07T02:15:58;6.47;;;4.40;;
7150;SDS011;3617;48.836;9.172;2023-05-07T02:18:24;7.17;;;4.13;;
7150;SDS011;3617;48.836;9.172;2023-05-07T02:20:50;7.57;;;4.07;;
7150;SDS011;3617;48.836;9.172;2023-05-07T02:23:16;5.00;;;3.90;;
7150;SDS011;3617;48.836;9.172;2023-05-07T02:25:42;5.87;;;4.40;;
7150;SDS011;3617;48.836;9.172;2023-05-07T02:28:08;6.87;;;4.10;;
7150;SDS011;3617;48.836;9.172;2023-05-07T02:30:35;5.13;;;3.77;;
7150;SDS011;3617;48.836;9.172;2023-05-07T02:33:01;5.47;;;4.03;;
7150;SDS011;3617;48.836;9.172;2023-05-07T02:35:27;5.50;;;4.00;;
7150;SDS011;3617;48.836;9.172;2023-05-07T02:37:53;6.57;;;3.90;;
7150;SDS011;3617;48.836;9.172;2023-05-07T02:40:19;7.57;;;4.27;;
7150;SDS011;3617;48.836;9.172;2023-05-07T02:42:45;7.13;;;4.03;;
7150;SDS011;3617;48.836;9.172;2023-05-07T02:45:11;5.97;;;3.60;;
7150;SDS011;3617;48.836;9.172;2023-05-07T02:47:37;5.90;;;4.10;;
7150;SDS011;3617;48.836;9.172;2023-05-07T02:50:03;7.93;;;4.43;;
7150;SDS011;3617;48.836;9.172;2023-05-07T02:52:29;5.77;;;3.80;;
7150;SDS011;3617;48.836;9.172;2023-05-07T02:54:55;4.50;;;3.97;;
7150;SDS011;3617;48.836;9.172;2023-05-07T02:57:21;6.30;;;4.00;;
7150;SDS011;3617;48.836;9.172;2023-05-07T02:59:47;5.87;;;4.17;;
7150;SDS011;3617;48.836;9.172;2023-05-07T03:02:13;6.33;;;4.10;;
7150;SDS011;3617;48.836;9.172;2023-05-07T03:04:39;5.20;;;3.80;;
7150;SDS011;3617;48.836;9.172;2023-05-07T03:07:06;4.73;;;3.80;;
7150;SDS011;3617;48.836;9.172;2023-05-07T03:09:31;5.70;;;3.87;;
7150;SDS011;3617;48.836;9.172;2023-05-07T03:11:57;4.23;;;3.30;;
7150;SDS011;3617;48.836;9.172;2023-05-07T03:14:23;5.83;;;4.10;;
7150;SDS011;3617;48.836;9.172;2023-05-07T03:16:50;5.53;;;3.77;;
7150;SDS011;3617;48.836;9.172;2023-05-07T03:19:16;6.93;;;4.00;;
7150;SDS011;3617;48.836;9.172;2023-05-07T03:21:42;5.73;;;3.83;;
7150;SDS011;3617;48.836;9.172;2023-05-07T03:24:08;6.67;;;4.27;;
7150;SDS011;3617;48.836;9.172;2023-05-07T03:26:34;6.30;;;4.17;;
7150;SDS011;3617;48.836;9.172;2023-05-07T03:29:00;5.07;;;3.90;;
7150;SDS011;3617;48.836;9.172;2023-05-07T03:31:26;5.13;;;4.10;;
7150;SDS011;3617;48.836;9.172;2023-05-07T03:33:52;5.07;;;3.70;;
7150;SDS011;3617;48.836;9.172;2023-05-07T03:36:19;4.90;;;3.87;;
7150;SDS011;3617;48.836;9.172;2023-05-07T03:38:45;8.97;;;3.73;;
7150;SDS011;3617;48.836;9.172;2023-05-07T03:41:11;4.80;;;3.90;;
7150;SDS011;3617;48.836;9.172;2023-05-07T03:43:37;5.40;;;3.77;;
7150;SDS011;3617;48.836;9.172;2023-05-07T03:46:03;6.53;;;4.53;;
7150;SDS011;3617;48.836;9.172;2023-05-07T03:48:29;5.80;;;4.20;;
7150;SDS011;3617;48.836;9.172;2023-05-07T03:50:55;6.10;;;3.97;;
7150;SDS011;3617;48.836;9.172;2023-05-07T03:53:21;6.47;;;3.87;;
7150;SDS011;3617;48.836;9.172;2023-05-07T03:55:47;6.77;;;4.00;;
7150;SDS011;3617;48.836;9.172;2023-05-07T03:58:14;5.40;;;3.73;;
7150;SDS011;3617;48.836;9.172;2023-05-07T04:00:40;5.07;;;3.57;;
7150;SDS011;3617;48.836;9.172;2023-05-07T04:03:06;6.30;;;3.67;;
7150;SDS011;3617;48.836;9.172;2023-05-07T04:05:32;6.70;;;4.17;;
7150;SDS011;3617;48.836;9.172;2023-05-07T04:07:58;5.07;;;3.83;;
7150;SDS011;3617;48.836;9.172;2023-05-07T04:10:24;7.97;;;4.37;;
7150;SDS011;3617;48.836;9.172;2023-05-07T04:12:50;5.37;;;4.10;;
7150;SDS011;3617;48.836;9.172;2023-05-07T04:15:17;6.77;;;4.50;;
7150;SDS011;3617;48.836;9.172;2023-05-07T04:17:43;6.90;;;3.83;;
7150;SDS011;3617;48.836;9.172;2023-05-07T04:20:09;5.03;;;4.13;;
7150;SDS011;3617;48.836;9.172;2023-05-07T04:22:35;5.97;;;3.87;;
7150;SDS011;3617;48.836;9.172;2023-05-07T04:25:02;8.27;;;4.10;;
7150;SDS011;3617;48.836;9.172;2023-05-07T04:27:28;6.30;;;4.13;;
7150;SDS011;3617;48.836;9.172;2023-05-07T04:29:54;6.10;;;3.93;;
7150;SDS011;3617;48.836;9.172;2023-05-07T04:32:21;5.30;;;4.20;;
7150;SDS011;3617;48.836;9.172;2023-05-07T04:34:47;5.47;;;3.87;;
7150;SDS011;3617;48.836;9.172;2023-05-07T04:37:13;7.87;;;3.97;;
7150;SDS011;3617;48.836;9.172;2023-05-07T04:39:39;6.97;;;4.27;;
7150;SDS011;3617;48.836;9.172;2023-05-07T04:42:05;7.20;;;4.37;;
7150;SDS011;3617;48.836;9.172;2023-05-07T04:44:33;5.20;;;4.10;;
7150;SDS011;3617;48.836;9.172;2023-05-07T04:47:00;5.60;;;4.30;;
7150;SDS011;3617;48.836;9.172;2023-05-07T04:49:26;5.30;;;4.20;;
7150;SDS011;3617;48.836;9.172;2023-05-07T04:51:52;5.37;;;4.07;;
7150;SDS011;3617;48.836;9.172;2023-05-07T04:54:18;4.73;;;3.93;;
7150;SDS011;3617;48.836;9.172;2023-05-07T04:56:44;6.87;;;4.13;;
7150;SDS011;3617;48.836;9.172;2023-05-07T04:59:10;8.23;;;4.00;;
7150;SDS011;3617;48.836;9.172;2023-05-07T05:01:36;6.03;;;4.20;;
7150;SDS011;3617;48.836;9.172;2023-05-07T05:04:02;5.13;;;3.63;;
7150;SDS011;3617;48.836;9.172;2023-05-07T05:06:28;5.03;;;3.87;;
7150;SDS011;3617;48.836;9.172;2023-05-07T05:08:54;7.50;;;3.93;;
7150;SDS011;3617;48.836;9.172;2023-05-07T05:11:20;5.67;;;3.53;;
7150;SDS011;3617;48.836;9.172;2023-05-07T05:13:46;5.93;;;3.80;;
7150;SDS011;3617;48.836;9.172;2023-05-07T05:16:14;6.17;;;4.23;;
7150;SDS011;3617;48.836;9.172;2023-05-07T05:18:40;6.70;;;4.50;;
7150;SDS011;3617;48.836;9.172;2023-05-07T05:21:06;5.67;;;4.33;;
7150;SDS011;3617;48.836;9.172;2023-05-07T05:23:33;6.30;;;4.27;;
7150;SDS011;3617;48.836;9.172;2023-05-07T05:25:59;5.17;;;3.77;;
7150;SDS011;3617;48.836;9.172;2023-05-07T05:28:26;5.73;;;3.67;;
7150;SDS011;3617;48.836;9.172;2023-05-07T05:30:53;5.30;;;3.57;;
7150;SDS011;3617;48.836;9.172;2023-05-07T05:33:19;5.60;;;3.97;;
7150;SDS011;3617;48.836;9.172;2023-05-07T05:35:45;5.33;;;3.47;;
7150;SDS011;3617;48.836;9.172;2023-05-07T05:38:11;7.47;;;3.50;;
7150;SDS011;3617;48.836;9.172;2023-05-07T05:40:37;4.63;;;3.27;;
7150;SDS011;3617;48.836;9.172;2023-05-07T05:43:03;6.07;;;3.40;;
7150;SDS011;3617;48.836;9.172;2023-05-07T05:45:29;3.40;;;3.10;;
7150;SDS011;3617;48.836;9.172;2023-05-07T05:47:56;3.33;;;2.80;;
7150;SDS011;3617;48.836;9.172;2023-05-07T05:50:22;3.67;;;3.00;;
7150;SDS011;3617;48.836;9.172;2023-05-07T05:52:48;4.50;;;2.70;;
7150;SDS011;3617;48.836;9.172;2023-05-07T05:55:14;3.07;;;2.77;;
7150;SDS011;3617;48.836;9.172;2023-05-07T05:57:40;3.97;;;2.95;;
7150;SDS011;3617;48.836;9.172;2023-05-07T06:00:06;4.75;;;3.22;;
7150;SDS011;3617;48.836;9.172;2023-05-07T06:02:33;7.28;;;3.15;;
7150;SDS011;3617;48.836;9.172;2023-05-07T06:04:59;4.32;;;3.10;;
7150;SDS011;3617;48.836;9.172;2023-05-07T06:07:25;3.80;;;3.00;;
7150;SDS011;3617;48.836;9.172;2023-05-07T06:09:51;4.10;;;2.80;;
7150;SDS011;3617;48.836;9.172;2023-05-07T06:12:17;3.90;;;2.80;;
7150;SDS011;3617;48.836;9.172;2023-05-07T06:14:43;5.25;;;2.75;;
7150;SDS011;3617;48.836;9.172;2023-05-07T06:17:09;2.90;;;2.60;;
7150;SDS011;3617;48.836;9.172;2023-05-07T06:19:35;2.95;;;2.60;;
7150;SDS011;3617;48.836;9.172;2023-05-07T06:22:01;3.05;;;2.65;;
7150;SDS011;3617;48.836;9.172;2023-05-07T06:24:27;3.28;;;2.60;;
7150;SDS011;3617;48.836;9.172;2023-05-07T06:26:53;5.07;;;2.97;;
7150;SDS011;3617;48.836;9.172;2023-05-07T06:29:19;3.42;;;2.70;;
7150;SDS011;3617;48.836;9.172;2023-05-07T06:31:46;4.93;;;2.95;;
7150;SDS011;3617;48.836;9.172;2023-05-07T06:34:12;2.75;;;2.30;;
7150;SDS011;3617;48.836;9.172;2023-05-07T06:36:39;4.97;;;2.80;;
7150;SDS011;3617;48.836;9.172;2023-05-07T06:39:05;4.38;;;2.65;;
7150;SDS011;3617;48.836;9.172;2023-05-07T06:41:31;3.17;;;2.88;;
7150;SDS011;3617;48.836;9.172;2023-05-07T06:43:57;3.22;;;2.75;;
7150;SDS011;3617;48.836;9.172;2023-05-07T06:46:23;3.20;;;2.65;;
7150;SDS011;3617;48.836;9.172;2023-05-07T06:48:49;3.83;;;2.50;;
7150;SDS011;3617;48.836;9.172;2023-05-07T06:51:15;2.95;;;2.65;;
7150;SDS011;3617;48.836;9.172;2023-05-07T06:53:41;3.08;;;2.58;;
7150;SDS011;3617;48.836;9.172;2023-05-07T06:56:07;2.78;;;2.53;;
7150;SDS011;3617;48.836;9.172;2023-05-07T06:58:33;3.55;;;2.50;;
7150;SDS011;3617;48.836;9.172;2023-05-07T07:00:59;2.80;;;2.47;;
7150;SDS011;3617;48.836;9.172;2023-05-07T07:03:25;3.10;;;2.80;;
7150;SDS011;3617;48.836;9.172;2023-05-07T07:05:52;2.90;;;2.50;;
7150;SDS011;3617;48.836;9.172;2023-05-07T07:08:18;2.55;;;2.33;;
7150;SDS011;3617;48.836;9.172;2023-05-07T07:10:46;4.47;;;2.47;;
7150;SDS011;3617;48.836;9.172;2023-05-07T07:13:12;3.10;;;2.40;;
7150;SDS011;3617;48.836;9.172;2023-05-07T07:15:38;5.53;;;2.50;;
7150;SDS011;3617;48.836;9.172;2023-05-07T07:18:05;3.17;;;2.38;;
7150;SDS011;3617;48.836;9.172;2023-05-07T07:20:31;4.63;;;2.90;;
7150;SDS011;3617;48.836;9.172;2023-05-07T07:22:57;2.58;;;2.38;;
7150;SDS011;3617;48.836;9.172;2023-05-07T07:25:23;4.82;;;2.33;;
7150;SDS011;3617;48.836;9.172;2023-05-07T07:27:49;2.60;;;2.40;;
7150;SDS011;3617;48.836;9.172;2023-05-07T07:30:15;2.90;;;2.30;;
7150;SDS011;3617;48.836;9.172;2023-05-07T07:32:41;3.65;;;2.40;;
7150;SDS011;3617;48.836;9.172;2023-05-07T07:35:07;3.65;;;2.60;;
7150;SDS011;3617;48.836;9.172;2023-05-07T07:37:34;2.95;;;2.58;;
7150;SDS011;3617;48.836;9.172;2023-05-07T07:40:00;3.10;;;2.60;;
7150;SDS011;3617;48.836;9.172;2023-05-07T07:42:26;3.10;;;2.55;;
7150;SDS011;3617;48.836;9.172;2023-05-07T07:44:52;3.42;;;2.47;;
7150;SDS011;3617;48.836;9.172;2023-05-07T07:47:18;3.03;;;2.13;;
7150;SDS011;3617;48.836;9.172;2023-05-07T07:49:44;3.42;;;2.30;;
7150;SDS011;3617;48.836;9.172;2023-05-07T07:52:10;3.17;;;2.33;;
7150;SDS011;3617;48.836;9.172;2023-05-07T07:54:36;2.78;;;2.47;;
7150;SDS011;3617;48.836;9.172;2023-05-07T07:57:02;3.83;;;2.50;;
7150;SDS011;3617;48.836;9.172;2023-05-07T07:59:28;3.58;;;2.22;;
7150;SDS011;3617;48.836;9.172;2023-05-07T08:01:54;3.03;;;2.50;;
7150;SDS011;3617;48.836;9.172;2023-05-07T08:04:21;2.70;;;2.38;;
7150;SDS011;3617;48.836;9.172;2023-05-07T08:06:47;2.85;;;2.40;;
7150;SDS011;3617;48.836;9.172;2023-05-07T08:09:13;2.72;;;2.42;;
7150;SDS011;3617;48.836;9.172;2023-05-07T08:11:39;4.22;;;2.67;;
7150;SDS011;3617;48.836;9.172;2023-05-07T08:14:05;3.30;;;2.78;;
7150;SDS011;3617;48.836;9.172;2023-05-07T08:16:31;3.03;;;2.53;;
7150;SDS011;3617;48.836;9.172;2023-05-07T08:18:57;5.63;;;2.70;;
7150;SDS011;3617;48.836;9.172;2023-05-07T08:21:23;4.55;;;2.60;;
7150;SDS011;3617;48.836;9.172;2023-05-07T08:23:49;5.25;;;2.63;;
7150;SDS011;3617;48.836;9.172;2023-05-07T08:26:15;4.57;;;2.42;;
7150;SDS011;3617;48.836;9.172;2023-05-07T08:28:41;3.10;;;2.60;;
7150;SDS011;3617;48.836;9.172;2023-05-07T08:31:07;4.50;;;2.92;;
7150;SDS011;3617;48.836;9.172;2023-05-07T08:33:33;3.00;;;2.53;;
7150;SDS011;3617;48.836;9.172;2023-05-07T08:35:59;3.83;;;2.60;;
7150;SDS011;3617;48.836;9.172;2023-05-07T08:38:25;3.45;;;2.60;;
7150;SDS011;3617;48.836;9.172;2023-05-07T08:40:51;3.08;;;2.78;;
7150;SDS011;3617;48.836;9.172;2023-05-07T08:43:18;3.40;;;2.95;;
7150;SDS011;3617;48.836;9.172;2023-05-07T08:45:45;2.88;;;2.50;;
7150;SDS011;3617;48.836;9.172;2023-05-07T08:48:15;3.78;;;2.70;;
7150;SDS011;3617;48.836;9.172;2023-05-07T08:50:41;2.72;;;2.50;;
7150;SDS011;3617;48.836;9.172;2023-05-07T08:53:07;2.80;;;2.50;;
7150;SDS011;3617;48.836;9.172;2023-05-07T08:55:33;2.92;;;2.63;;
7150;SDS011;3617;48.836;9.172;2023-05-07T08:58:00;4.25;;;2.80;;
7150;SDS011;3617;48.836;9.172;2023-05-07T09:00:26;3.17;;;2.63;;
7150;SDS011;3617;48.836;9.172;2023-05-07T09:02:52;3.10;;;2.80;;
7150;SDS011;3617;48.836;9.172;2023-05-07T09:05:19;3.90;;;2.63;;
7150;SDS011;3617;48.836;9.172;2023-05-07T09:07:45;3.22;;;2.30;;
7150;SDS011;3617;48.836;9.172;2023-05-07T09:10:11;3.33;;;2.53;;
7150;SDS011;3617;48.836;9.172;2023-05-07T09:12:38;3.05;;;2.50;;
7150;SDS011;3617;48.836;9.172;2023-05-07T09:15:04;4.15;;;2.35;;
7150;SDS011;3617;48.836;9.172;2023-05-07T09:17:30;2.58;;;2.30;;
7150;SDS011;3617;48.836;9.172;2023-05-07T09:20:01;2.85;;;2.55;;
7150;SDS011;3617;48.836;9.172;2023-05-07T09:22:29;2.90;;;2.50;;
7150;SDS011;3617;48.836;9.172;2023-05-07T09:24:56;2.95;;;2.30;;
7150;SDS011;3617;48.836;9.172;2023-05-07T09:27:22;2.75;;;2.28;;
7150;SDS011;3617;48.836;9.172;2023-05-07T09:29:49;3.38;;;2.33;;
7150;SDS011;3617;48.836;9.172;2023-05-07T09:32:15;2.83;;;1.85;;
7150;SDS011;3617;48.836;9.172;2023-05-07T09:34:42;3.10;;;2.20;;
7150;SDS011;3617;48.836;9.172;2023-05-07T09:37:08;2.40;;;2.05;;
7150;SDS011;3617;48.836;9.172;2023-05-07T09:39:44;2.15;;;1.90;;
7150;SDS011;3617;48.836;9.172;2023-05-07T09:42:11;3.03;;;2.03;;
7150;SDS011;3617;48.836;9.172;2023-05-07T09:44:37;2.38;;;1.90;;
7150;SDS011;3617;48.836;9.172;2023-05-07T09:47:04;2.85;;;1.83;;
7150;SDS011;3617;48.836;9.172;2023-05-07T09:49:32;2.95;;;1.77;;
7150;SDS011;3617;48.836;9.172;2023-05-07T09:51:59;2.40;;;1.85;;
7150;SDS011;3617;48.836;9.172;2023-05-07T09:54:26;2.55;;;1.80;;
7150;SDS011;3617;48.836;9.172;2023-05-07T09:56:55;2.50;;;1.90;;
7150;SDS011;3617;48.836;9.172;2023-05-07T09:59:22;2.85;;;1.83;;
7150;SDS011;3617;48.836;9.172;2023-05-07T10:01:48;2.47;;;1.90;;
7150;SDS011;3617;48.836;9.172;2023-05-07T10:04:14;1.70;;;1.60;;
7150;SDS011;3617;48.836;9.172;2023-05-07T10:06:41;2.58;;;1.90;;
7150;SDS011;3617;48.836;9.172;2023-05-07T10:09:08;1.88;;;1.70;;
7150;SDS011;3617;48.836;9.172;2023-05-07T10:11:36;4.05;;;2.00;;
7150;SDS011;3617;48.836;9.172;2023-05-07T10:14:02;2.10;;;1.90;;
7150;SDS011;3617;48.836;9.172;2023-05-07T10:16:31;1.70;;;1.52;;
7150;SDS011;3617;48.836;9.172;2023-05-07T10:19:07;3.60;;;2.08;;
7150;SDS011;3617;48.836;9.172;2023-05-07T10:21:35;2.45;;;1.92;;
7150;SDS011;3617;48.836;9.172;2023-05-07T10:24:04;2.38;;;1.80;;
7150;SDS011;3617;48.836;9.172;2023-05-07T10:26:31;2.38;;;2.10;;
7150;SDS011;3617;48.836;9.172;2023-05-07T10:28:59;5.78;;;2.20;;
7150;SDS011;3617;48.836;9.172;2023-05-07T10:33:59;2.22;;;1.60;;
7150;SDS011;3617;48.836;9.172;2023-05-07T10:36:26;3.00;;;1.85;;
7150;SDS011;3617;48.836;9.172;2023-05-07T10:38:53;3.30;;;2.00;;
7150;SDS011;3617;48.836;9.172;2023-05-07T10:41:19;3.47;;;1.70;;
7150;SDS011;3617;48.836;9.172;2023-05-07T10:43:45;2.42;;;2.00;;
7150;SDS011;3617;48.836;9.172;2023-05-07T10:46:15;2.85;;;1.92;;
7150;SDS011;3617;48.836;9.172;2023-05-07T10:51:31;2.13;;;1.92;;
7150;SDS011;3617;48.836;9.172;2023-05-07T10:56:36;2.22;;;1.98;;
7150;SDS011;3617;48.836;9.172;2023-05-07T11:04:16;2.00;;;1.80;;
7150;SDS011;3617;48.836;9.172;2023-05-07T11:15:12;2.25;;;1.90;;
7150;SDS011;3617;48.836;9.172;2023-05-07T11:17:53;2.20;;;1.95;;
7150;SDS011;3617;48.836;9.172;2023-05-07T11:20:19;2.88;;;2.20;;
7150;SDS011;3617;48.836;9.172;2023-05-07T11:22:45;2.35;;;1.90;;
7150;SDS011;3617;48.836;9.172;2023-05-07T11:25:11;2.45;;;2.08;;
7150;SDS011;3617;48.836;9.172;2023-05-07T11:27:42;2.58;;;1.80;;
7150;SDS011;3617;48.836;9.172;2023-05-07T11:30:09;2.83;;;2.10;;
7150;SDS011;3617;48.836;9.172;2023-05-07T11:32:35;2.42;;;2.10;;
7150;SDS011;3617;48.836;9.172;2023-05-07T11:35:01;3.20;;;1.98;;
7150;SDS011;3617;48.836;9.172;2023-05-07T11:37:27;2.90;;;2.10;;
7150;SDS011;3617;48.836;9.172;2023-05-07T11:42:34;3.83;;;2.80;;
7150;SDS011;3617;48.836;9.172;2023-05-07T11:45:01;2.60;;;2.40;;
7150;SDS011;3617;48.836;9.172;2023-05-07T11:47:29;2.47;;;2.00;;
7150;SDS011;3617;48.836;9.172;2023-05-07T11:49:56;3.72;;;2.00;;
7150;SDS011;3617;48.836;9.172;2023-05-07T11:52:23;2.75;;;2.20;;
7150;SDS011;3617;48.836;9.172;2023-05-07T11:54:53;4.05;;;2.03;;
7150;SDS011;3617;48.836;9.172;2023-05-07T11:57:25;2.25;;;2.05;;
7150;SDS011;3617;48.836;9.172;2023-05-07T11:59:55;2.30;;;2.10;;
7150;SDS011;3617;48.836;9.172;2023-05-07T12:02:21;3.65;;;1.85;;
7150;SDS011;3617;48.836;9.172;2023-05-07T12:04:49;2.83;;;2.00;;
7150;SDS011;3617;48.836;9.172;2023-05-07T12:07:15;3.47;;;2.13;;
7150;SDS011;3617;48.836;9.172;2023-05-07T12:09:42;2.75;;;1.92;;
7150;SDS011;3617;48.836;9.172;2023-05-07T12:12:08;2.47;;;1.80;;
7150;SDS011;3617;48.836;9.172;2023-05-07T12:14:41;2.42;;;2.00;;
7150;SDS011;3617;48.836;9.172;2023-05-07T12:17:07;2.22;;;1.70;;
7150;SDS011;3617;48.836;9.172;2023-05-07T12:19:34;2.92;;;1.70;;
7150;SDS011;3617;48.836;9.172;2023-05-07T12:22:02;2.22;;;1.90;;
7150;SDS011;3617;48.836;9.172;2023-05-07T12:24:28;2.45;;;1.95;;
7150;SDS011;3617;48.836;9.172;2023-05-07T12:26:54;2.97;;;1.80;;
7150;SDS011;3617;48.836;9.172;2023-05-07T12:29:23;3.28;;;2.03;;
7150;SDS011;3617;48.836;9.172;2023-05-07T12:31:49;2.10;;;2.00;;
7150;SDS011;3617;48.836;9.172;2023-05-07T12:34:16;2.58;;;1.70;;
7150;SDS011;3617;48.836;9.172;2023-05-07T12:36:42;2.42;;;1.92;;
7150;SDS011;3617;48.836;9.172;2023-05-07T12:39:08;2.55;;;2.20;;
7150;SDS011;3617;48.836;9.172;2023-05-07T12:44:21;2.15;;;1.95;;
7150;SDS011;3617;48.836;9.172;2023-05-07T12:46:47;3.05;;;2.10;;
7150;SDS011;3617;48.836;9.172;2023-05-07T12:49:13;2.63;;;1.90;;
7150;SDS011;3617;48.836;9.172;2023-05-07T12:51:39;3.17;;;1.88;;
7150;SDS011;3617;48.836;9.172;2023-05-07T12:54:06;3.95;;;2.03;;
7150;SDS011;3617;48.836;9.172;2023-05-07T12:56:35;3.63;;;2.20;;
7150;SDS011;3617;48.836;9.172;2023-05-07T12:59:01;3.08;;;2.10;;
7150;SDS011;3617;48.836;9.172;2023-05-07T13:01:28;4.53;;;2.30;;
7150;SDS011;3617;48.836;9.172;2023-05-07T13:03:55;3.33;;;2.08;;
7150;SDS011;3617;48.836;9.172;2023-05-07T13:06:21;5.38;;;2.58;;
7150;SDS011;3617;48.836;9.172;2023-05-07T13:08:47;4.60;;;2.55;;
7150;SDS011;3617;48.836;9.172;2023-05-07T13:11:13;4.95;;;1.95;;
7150;SDS011;3617;48.836;9.172;2023-05-07T13:13:39;4.93;;;1.90;;
7150;SDS011;3617;48.836;9.172;2023-05-07T13:16:06;3.63;;;2.20;;
7150;SDS011;3617;48.836;9.172;2023-05-07T13:18:33;3.50;;;2.60;;
7150;SDS011;3617;48.836;9.172;2023-05-07T13:20:59;3.77;;;2.00;;
7150;SDS011;3617;48.836;9.172;2023-05-07T13:23:26;1.97;;;1.73;;
7150;SDS011;3617;48.836;9.172;2023-05-07T13:25:52;1.60;;;1.20;;
7150;SDS011;3617;48.836;9.172;2023-05-07T13:28:22;1.80;;;1.30;;
7150;SDS011;3617;48.836;9.172;2023-05-07T13:30:48;3.20;;;1.47;;
7150;SDS011;3617;48.836;9.172;2023-05-07T13:33:16;2.87;;;1.60;;
7150;SDS011;3617;48.836;9.172;2023-05-07T13:35:42;4.80;;;1.40;;
7150;SDS011;3617;48.836;9.172;2023-05-07T13:38:08;3.03;;;1.53;;
7150;SDS011;3617;48.836;9.172;2023-05-07T13:40:34;2.70;;;1.70;;
7150;SDS011;3617;48.836;9.172;2023-05-07T13:43:00;3.73;;;1.67;;
7150;SDS011;3617;48.836;9.172;2023-05-07T13:45:29;5.67;;;2.10;;
7150;SDS011;3617;48.836;9.172;2023-05-07T13:47:55;3.50;;;1.50;;
7150;SDS011;3617;48.836;9.172;2023-05-07T13:50:22;2.13;;;1.90;;
7150;SDS011;3617;48.836;9.172;2023-05-07T13:52:48;2.00;;;1.60;;
7150;SDS011;3617;48.836;9.172;2023-05-07T13:55:17;1.73;;;1.30;;
7150;SDS011;3617;48.836;9.172;2023-05-07T13:57:43;3.43;;;1.70;;
7150;SDS011;3617;48.836;9.172;2023-05-07T14:00:10;1.53;;;1.37;;
7150;SDS011;3617;48.836;9.172;2023-05-07T14:02:36;1.47;;;0.90;;
7150;SDS011;3617;48.836;9.172;2023-05-07T14:05:02;1.87;;;1.37;;
7150;SDS011;3617;48.836;9.172;2023-05-07T14:07:28;0.70;;;0.70;;
7150;SDS011;3617;48.836;9.172;2023-05-07T14:09:54;0.90;;;0.80;;
7150;SDS011;3617;48.836;9.172;2023-05-07T14:12:20;1.77;;;0.87;;
7150;SDS011;3617;48.836;9.172;2023-05-07T14:14:46;1.30;;;0.90;;
7150;SDS011;3617;48.836;9.172;2023-05-07T14:17:14;2.20;;;1.50;;
7150;SDS011;3617;48.836;9.172;2023-05-07T14:19:40;3.10;;;1.70;;
7150;SDS011;3617;48.836;9.172;2023-05-07T14:22:06;2.90;;;1.70;;
7150;SDS011;3617;48.836;9.172;2023-05-07T14:24:32;2.00;;;1.50;;
7150;SDS011;3617;48.836;9.172;2023-05-07T14:26:58;3.70;;;1.73;;
7150;SDS011;3617;48.836;9.172;2023-05-07T14:29:24;2.63;;;1.60;;
7150;SDS011;3617;48.836;9.172;2023-05-07T14:31:50;2.93;;;1.80;;
7150;SDS011;3617;48.836;9.172;2023-05-07T14:34:16;2.47;;;2.00;;
7150;SDS011;3617;48.836;9.172;2023-05-07T14:36:42;2.13;;;1.93;;
7150;SDS011;3617;48.836;9.172;2023-05-07T14:39:09;4.97;;;1.80;;
7150;SDS011;3617;48.836;9.172;2023-05-07T14:41:35;2.50;;;1.83;;
7150;SDS011;3617;48.836;9.172;2023-05-07T14:44:01;3.93;;;2.03;;
7150;SDS011;3617;48.836;9.172;2023-05-07T14:46:28;4.47;;;2.00;;
7150;SDS011;3617;48.836;9.172;2023-05-07T14:48:54;3.50;;;2.00;;
7150;SDS011;3617;48.836;9.172;2023-05-07T14:51:20;2.87;;;2.17;;
7150;SDS011;3617;48.836;9.172;2023-05-07T14:53:47;2.80;;;1.73;;
7150;SDS011;3617;48.836;9.172;2023-05-07T14:56:13;2.40;;;2.07;;
7150;SDS011;3617;48.836;9.172;2023-05-07T14:58:39;3.50;;;2.17;;
7150;SDS011;3617;48.836;9.172;2023-05-07T15:01:05;1.70;;;1.60;;
7150;SDS011;3617;48.836;9.172;2023-05-07T15:03:31;2.17;;;1.97;;
7150;SDS011;3617;48.836;9.172;2023-05-07T15:05:57;2.07;;;1.70;;
7150;SDS011;3617;48.836;9.172;2023-05-07T15:08:23;4.50;;;2.17;;
7150;SDS011;3617;48.836;9.172;2023-05-07T15:10:49;2.20;;;1.73;;
7150;SDS011;3617;48.836;9.172;2023-05-07T15:13:15;3.33;;;2.10;;
7150;SDS011;3617;48.836;9.172;2023-05-07T15:15:41;2.80;;;2.10;;
7150;SDS011;3617;48.836;9.172;2023-05-07T15:18:08;3.07;;;2.20;;
7150;SDS011;3617;48.836;9.172;2023-05-07T15:20:35;4.33;;;2.57;;
7150;SDS011;3617;48.836;9.172;2023-05-07T15:23:01;2.73;;;2.50;;
7150;SDS011;3617;48.836;9.172;2023-05-07T15:25:31;3.03;;;2.50;;
7150;SDS011;3617;48.836;9.172;2023-05-07T15:27:58;3.30;;;2.47;;
7150;SDS011;3617;48.836;9.172;2023-05-07T15:30:24;5.00;;;2.60;;
7150;SDS011;3617;48.836;9.172;2023-05-07T15:32:51;2.47;;;2.20;;
7150;SDS011;3617;48.836;9.172;2023-05-07T15:35:17;2.77;;;2.20;;
7150;SDS011;3617;48.836;9.172;2023-05-07T15:37:46;3.10;;;2.80;;